Hlavní strana
METAR-TAF:

METAR-TAF

Letiště :

Athény, Řecko

Letiště Atény

zeměpisná šířka: 37-56N, zeměpisná délka: 023-56E, výška: 94 m

Aktuální stav počasí

Zpráva byla vytvořena před 30 minutami, v 08:50 UTC
Severní vítr 24 kt s nárazy do 38 kt
Teplota 7°C
Vlhkost vzduchu 53%
Tlak 1026 hPa
Viditelnost 10 km a více
Polojasno ve výšce 2000 ft
Oblačno až skoro zataženo ve výšce 3000 ft

METAR: LGAV 240850Z 01024G38KT 9999 SCT020 BKN030 07/M02 Q1026 NOSIG

Čas: 11:20 (09:20 UTC)

Předpověď počasí

Zpráva byla vytvořena před 4 hodinami a 20 minutami, v 05:00 UTC
Předpověď platná od 24 v 06 UTC do 25 v 06 UTC
Severoseverovýchodní vítr 25 kt s nárazy do 35 kt
Viditelnost 10 km a více
Skoro jasno ve výšce 2000 ft
Oblačno až skoro zataženo ve výšce 3000 ft
Oblačno až skoro zataženo ve výšce 7000 ft
Změna
od 24 v 06 UTC do 24 v 08 UTC
Severoseverovýchodní vítr 30 kt s nárazy do 45 kt

TAF: LGAV 240500Z 2406/2506 03025G35KT 9999 FEW020 BKN030 BKN070 BECMG 2406/2408 03030G45KT

Stav a předpovědi počasí z více než 4 000 letišť (zprávy METAR a TAF).

Červené a žluté tečky na mapě představují dostupné meteorologické stanice.

Když kurzor umístíte na tečku, zobrazí se název stanice.

Pak kliknutím zobrazíte stav a předpověď počasí.

Chcete-li změnit mapu, kliknutím na zelené tlačítko se znaménkem +mapu přiblížíte, kliknutím na zelené tlačítko se znaménkem – mapu oddálíte a kliknutím na zelené šipky přejdete na sousední mapy.


METAR-TAF: